createdAt,value
2023-05-05T00:00:01.752Z,14.00
2023-05-05T00:02:33.143Z,16.25
2023-05-05T00:05:01.560Z,20.00
2023-05-05T00:07:29.933Z,17.50
2023-05-05T00:09:58.311Z,18.75
2023-05-05T00:12:26.758Z,18.25
2023-05-05T00:14:55.120Z,14.25
2023-05-05T00:17:24.221Z,18.00
2023-05-05T00:19:53.318Z,19.50
2023-05-05T00:22:21.817Z,18.00
2023-05-05T00:24:50.377Z,21.75
2023-05-05T00:27:18.815Z,17.50
2023-05-05T00:29:47.526Z,17.25
2023-05-05T00:32:15.904Z,18.00
2023-05-05T00:34:44.297Z,14.75
2023-05-05T00:37:15.448Z,18.00
2023-05-05T00:39:45.211Z,18.75
2023-05-05T00:42:13.576Z,17.00
2023-05-05T00:44:43.390Z,17.50
2023-05-05T00:47:14.084Z,17.00
2023-05-05T00:49:42.624Z,17.50
2023-05-05T00:52:12.548Z,16.75
2023-05-05T00:54:41.400Z,14.75
2023-05-05T00:57:09.985Z,16.75
2023-05-05T00:59:39.375Z,18.50
2023-05-05T01:02:07.774Z,17.75
2023-05-05T01:04:36.168Z,17.25
2023-05-05T01:07:19.467Z,16.25
2023-05-05T01:10:18.734Z,15.00
2023-05-05T01:12:59.397Z,17.75
2023-05-05T01:15:45.175Z,17.50
2023-05-05T01:18:38.943Z,17.75
2023-05-05T01:21:37.565Z,18.50
2023-05-05T01:24:33.242Z,15.25
2023-05-05T01:27:39.363Z,17.50
2023-05-05T01:30:46.950Z,19.00
2023-05-05T01:33:21.311Z,19.00
2023-05-05T01:35:57.341Z,17.75
2023-05-05T01:38:47.625Z,16.75
2023-05-05T01:41:25.196Z,17.25
2023-05-05T01:43:58.307Z,16.25
2023-05-05T01:46:28.391Z,16.75
2023-05-05T01:48:58.256Z,21.25
2023-05-05T01:51:29.612Z,17.25
2023-05-05T01:54:04.631Z,17.25
2023-05-05T01:56:34.956Z,18.50
2023-05-05T01:59:04.549Z,15.50
2023-05-05T02:01:33.822Z,17.25
2023-05-05T02:04:04.492Z,17.00
2023-05-05T02:06:34.877Z,19.50
2023-05-05T02:09:04.678Z,18.75
2023-05-05T02:11:33.781Z,18.00
2023-05-05T02:14:04.351Z,17.75
2023-05-05T02:16:34.475Z,17.00
2023-05-05T02:19:06.090Z,19.00
2023-05-05T02:21:35.543Z,17.25
2023-05-05T02:24:04.097Z,15.25
2023-05-05T02:26:36.779Z,17.00
2023-05-05T02:29:19.373Z,16.25
2023-05-05T02:31:52.174Z,16.50
2023-05-05T02:34:29.280Z,18.50
2023-05-05T02:37:04.952Z,17.25
2023-05-05T02:39:38.200Z,17.75
2023-05-05T02:42:08.085Z,17.75
2023-05-05T02:44:39.905Z,17.50
2023-05-05T02:47:09.116Z,18.25
2023-05-05T02:49:38.070Z,16.75
2023-05-05T02:52:06.731Z,17.50
2023-05-05T02:54:35.292Z,18.75
2023-05-05T02:57:05.031Z,20.00
2023-05-05T02:59:50.561Z,17.25
2023-05-05T03:02:25.879Z,18.25
2023-05-05T03:05:29.644Z,18.00
2023-05-05T03:08:19.475Z,19.00
2023-05-05T03:11:25.190Z,15.50
2023-05-05T03:14:02.442Z,17.50
2023-05-05T03:16:33.334Z,18.00
2023-05-05T03:19:03.840Z,16.50
2023-05-05T03:21:34.269Z,19.00
2023-05-05T03:24:12.360Z,16.75
2023-05-05T03:26:40.729Z,17.75
2023-05-05T03:29:09.397Z,17.00
2023-05-05T03:31:37.851Z,14.00
2023-05-05T03:34:08.375Z,17.25
2023-05-05T03:36:37.832Z,17.00
2023-05-05T03:39:06.476Z,15.50
2023-05-05T03:41:35.062Z,18.75
2023-05-05T03:44:03.518Z,14.50
2023-05-05T03:46:31.921Z,18.00
2023-05-05T03:49:00.325Z,14.50
2023-05-05T03:51:29.090Z,15.25
2023-05-05T03:53:57.504Z,16.25
2023-05-05T03:56:25.874Z,14.25
2023-05-05T03:58:54.347Z,14.75
2023-05-05T04:01:22.783Z,17.75
2023-05-05T04:03:51.249Z,13.50
2023-05-05T04:06:19.668Z,19.25
2023-05-05T04:08:48.092Z,17.75
2023-05-05T04:11:17.142Z,15.00
2023-05-05T04:13:45.628Z,17.25
2023-05-05T04:16:14.267Z,15.50
2023-05-05T04:18:42.768Z,16.25
2023-05-05T04:21:11.287Z,16.75
2023-05-05T04:23:39.703Z,17.00
2023-05-05T04:26:08.193Z,15.00
2023-05-05T04:28:36.703Z,14.50
2023-05-05T04:31:06.043Z,17.00
2023-05-05T04:33:34.504Z,16.25
2023-05-05T04:36:02.929Z,13.75
2023-05-05T04:38:31.380Z,17.50
2023-05-05T04:41:01.037Z,16.00
2023-05-05T04:43:29.529Z,18.00
2023-05-05T04:45:57.986Z,14.75
2023-05-05T04:48:26.455Z,15.25
2023-05-05T04:50:54.855Z,15.75
2023-05-05T04:53:23.352Z,15.50
2023-05-05T04:55:51.855Z,12.75
2023-05-05T04:58:20.344Z,14.50
2023-05-05T05:00:48.701Z,14.75
2023-05-05T05:03:17.213Z,18.25
2023-05-05T05:05:45.776Z,15.00
2023-05-05T05:08:17.783Z,15.25
2023-05-05T05:10:46.820Z,15.75
2023-05-05T05:13:15.314Z,13.25
2023-05-05T05:15:44.025Z,16.25
2023-05-05T05:18:12.577Z,15.25
2023-05-05T05:20:40.989Z,16.25
2023-05-05T05:23:09.415Z,14.25
2023-05-05T05:25:37.836Z,15.50
2023-05-05T05:28:10.703Z,13.00
2023-05-05T05:30:39.500Z,14.00
2023-05-05T05:33:07.954Z,15.50
2023-05-05T05:35:36.379Z,13.75
2023-05-05T05:38:05.004Z,16.25
2023-05-05T05:40:33.482Z,16.50
2023-05-05T05:43:02.123Z,14.25
2023-05-05T05:45:30.578Z,14.75
2023-05-05T05:47:59.028Z,13.50
2023-05-05T05:50:29.505Z,16.50
2023-05-05T05:52:57.932Z,15.25
2023-05-05T05:55:26.417Z,16.50
2023-05-05T05:57:54.808Z,16.75
2023-05-05T06:00:23.412Z,14.25
2023-05-05T06:02:52.575Z,15.50
2023-05-05T06:05:21.058Z,15.25
2023-05-05T06:07:49.590Z,19.25
2023-05-05T06:10:27.201Z,17.25
2023-05-05T06:12:56.685Z,17.25
2023-05-05T06:15:26.498Z,17.75
2023-05-05T06:17:54.985Z,16.00
2023-05-05T06:20:23.501Z,15.75
2023-05-05T06:22:51.972Z,15.00
2023-05-05T06:25:20.367Z,16.50
2023-05-05T06:27:48.776Z,15.75
2023-05-05T06:30:17.289Z,15.00
2023-05-05T06:32:45.766Z,13.50
2023-05-05T06:35:14.253Z,14.50
2023-05-05T06:37:42.650Z,15.25
2023-05-05T06:40:12.316Z,15.75
2023-05-05T06:42:40.737Z,19.00
2023-05-05T06:45:09.976Z,14.00
2023-05-05T06:47:38.486Z,17.50
2023-05-05T06:50:08.558Z,17.00
2023-05-05T06:52:37.375Z,13.75
2023-05-05T06:55:06.055Z,14.25
2023-05-05T06:57:34.569Z,16.75
2023-05-05T07:00:06.508Z,15.75
2023-05-05T07:02:35.142Z,13.50
2023-05-05T07:05:03.635Z,15.25
2023-05-05T07:07:33.465Z,15.00
2023-05-05T07:10:02.097Z,17.00
2023-05-05T07:12:34.455Z,17.00
2023-05-05T07:15:12.258Z,15.75
2023-05-05T07:17:47.854Z,14.75
2023-05-05T07:20:17.212Z,13.75
2023-05-05T07:22:45.835Z,16.50
2023-05-05T07:25:14.260Z,15.50
2023-05-05T07:27:43.354Z,13.50
2023-05-05T07:30:15.548Z,18.25
2023-05-05T07:32:46.923Z,15.00
2023-05-05T07:35:15.506Z,16.25
2023-05-05T07:37:45.213Z,14.00
2023-05-05T07:40:14.432Z,14.25
2023-05-05T07:42:42.953Z,14.75
2023-05-05T07:45:11.695Z,15.25
2023-05-05T07:47:41.409Z,11.75
2023-05-05T07:50:10.472Z,14.50
2023-05-05T07:55:10.433Z,12.00
2023-05-05T07:57:39.866Z,14.50
2023-05-05T08:00:09.258Z,13.50
2023-05-05T08:02:38.128Z,13.25
2023-05-05T08:05:07.197Z,15.00
2023-05-05T08:07:37.526Z,14.50
2023-05-05T08:10:06.194Z,14.25
2023-05-05T08:12:34.596Z,14.75
2023-05-05T08:15:03.079Z,17.25
2023-05-05T08:17:31.611Z,13.25
2023-05-05T08:20:00.025Z,13.00
2023-05-05T08:22:28.431Z,15.25
2023-05-05T08:24:56.933Z,14.00
2023-05-05T08:27:25.367Z,14.00
2023-05-05T08:29:53.837Z,15.50
2023-05-05T08:32:22.215Z,13.25
2023-05-05T08:34:50.623Z,13.25
2023-05-05T08:37:19.897Z,16.25
2023-05-05T08:39:48.348Z,16.25
2023-05-05T08:42:28.991Z,14.75
2023-05-05T08:45:04.572Z,15.00
2023-05-05T08:47:33.351Z,14.75
2023-05-05T08:50:02.946Z,14.50
2023-05-05T08:52:40.498Z,14.25
2023-05-05T08:55:31.118Z,13.75
2023-05-05T08:58:02.246Z,15.50
2023-05-05T09:00:31.561Z,13.75
2023-05-05T09:03:02.483Z,14.25
2023-05-05T09:05:31.021Z,14.50
2023-05-05T09:07:59.877Z,12.50
2023-05-05T09:10:29.720Z,17.00
2023-05-05T09:12:58.713Z,16.00
2023-05-05T09:15:29.363Z,17.00
2023-05-05T09:18:02.309Z,14.00
2023-05-05T09:20:39.087Z,12.50
2023-05-05T09:23:18.778Z,13.75
2023-05-05T09:25:49.831Z,15.25
2023-05-05T09:28:19.410Z,13.00
2023-05-05T09:30:48.937Z,11.75
2023-05-05T09:33:31.896Z,12.75
2023-05-05T09:36:00.675Z,13.25
2023-05-05T09:38:29.065Z,12.00
2023-05-05T09:40:57.520Z,13.75
2023-05-05T09:43:26.075Z,10.75
2023-05-05T09:46:08.420Z,13.50
2023-05-05T09:48:36.935Z,13.50
2023-05-05T09:51:05.425Z,15.50
2023-05-05T09:53:43.521Z,14.25
2023-05-05T09:56:12.091Z,13.00
2023-05-05T09:58:40.541Z,13.50
2023-05-05T10:01:24.650Z,12.25
2023-05-05T10:03:56.024Z,14.00
2023-05-05T10:06:42.566Z,14.50
2023-05-05T10:09:11.739Z,13.50
2023-05-05T10:11:47.156Z,14.00
2023-05-05T10:14:17.122Z,11.25
2023-05-05T10:16:52.082Z,11.00
2023-05-05T10:19:22.419Z,12.50
2023-05-05T10:21:55.778Z,11.00
2023-05-05T10:24:36.550Z,12.00
2023-05-05T10:27:13.747Z,11.50
2023-05-05T10:30:06.252Z,14.00
2023-05-05T10:33:05.090Z,12.75
2023-05-05T10:35:51.078Z,14.75
2023-05-05T10:38:20.891Z,14.00
2023-05-05T10:40:49.887Z,11.75
2023-05-05T10:43:19.081Z,13.50
2023-05-05T10:45:47.853Z,12.75
2023-05-05T10:48:23.942Z,14.25
2023-05-05T10:51:27.316Z,16.00
2023-05-05T10:54:24.409Z,10.75
2023-05-05T10:56:53.751Z,13.50
2023-05-05T10:59:42.101Z,14.75
2023-05-05T11:02:30.076Z,12.75
2023-05-05T11:05:09.192Z,12.75
2023-05-05T11:07:41.196Z,15.25
2023-05-05T11:10:11.905Z,14.50
2023-05-05T11:13:03.630Z,14.50
2023-05-05T11:15:32.118Z,14.25
2023-05-05T11:18:06.582Z,13.25
2023-05-05T11:20:41.590Z,13.00
2023-05-05T11:23:09.917Z,15.00
2023-05-05T11:25:38.419Z,14.75
2023-05-05T11:28:08.001Z,15.00
2023-05-05T11:30:37.780Z,15.00
2023-05-05T11:33:30.539Z,13.00
2023-05-05T11:36:06.635Z,14.75
2023-05-05T11:38:57.209Z,15.50
2023-05-05T11:41:34.420Z,14.50
2023-05-05T11:44:15.663Z,14.00
2023-05-05T11:46:55.719Z,13.75
2023-05-05T11:49:30.980Z,12.75
2023-05-05T11:51:59.392Z,16.00
2023-05-05T11:54:28.736Z,15.25
2023-05-05T11:57:08.694Z,15.50
2023-05-05T11:59:52.624Z,13.00
2023-05-05T12:02:22.206Z,14.25
2023-05-05T12:04:51.471Z,15.75
2023-05-05T12:07:21.670Z,15.50
2023-05-05T12:09:51.011Z,15.25
2023-05-05T12:12:20.196Z,14.75
2023-05-05T12:14:51.454Z,14.75
2023-05-05T12:17:23.856Z,14.25
2023-05-05T12:19:52.278Z,15.75
2023-05-05T12:22:26.321Z,14.25
2023-05-05T12:24:59.966Z,16.75
2023-05-05T12:27:29.651Z,15.75
2023-05-05T12:30:12.072Z,14.00
2023-05-05T12:32:41.118Z,15.75
2023-05-05T12:35:10.740Z,16.00
2023-05-05T12:37:39.925Z,16.00
2023-05-05T12:40:09.793Z,16.00
2023-05-05T12:42:41.349Z,14.25
2023-05-05T12:45:20.980Z,14.75
2023-05-05T12:47:49.464Z,16.25
2023-05-05T12:50:32.643Z,14.00
2023-05-05T12:53:01.950Z,15.25
2023-05-05T12:55:40.904Z,16.00
2023-05-05T12:58:09.370Z,14.75
2023-05-05T13:00:37.763Z,15.00
2023-05-05T13:03:07.348Z,11.50
2023-05-05T13:05:42.109Z,13.25
2023-05-05T13:08:10.689Z,15.00
2023-05-05T13:10:41.086Z,16.50
2023-05-05T13:13:09.777Z,15.50
2023-05-05T13:15:38.260Z,17.00
2023-05-05T13:18:07.055Z,16.75
2023-05-05T13:20:35.475Z,13.25
2023-05-05T13:23:03.862Z,15.75
2023-05-05T13:25:32.292Z,14.75
2023-05-05T13:28:00.697Z,14.25
2023-05-05T13:30:29.148Z,14.50
2023-05-05T13:32:57.525Z,18.25
2023-05-05T13:35:25.937Z,17.00
2023-05-05T13:37:54.308Z,19.25
2023-05-05T13:40:24.482Z,18.75
2023-05-05T13:42:54.182Z,17.75
2023-05-05T13:45:22.535Z,19.75
2023-05-05T13:47:51.033Z,18.75
2023-05-05T13:50:19.481Z,18.50
2023-05-05T13:52:48.404Z,18.25
2023-05-05T13:55:16.889Z,16.50
2023-05-05T13:57:45.408Z,20.25
2023-05-05T14:00:14.464Z,20.00
2023-05-05T14:02:42.984Z,21.00
2023-05-05T14:05:11.641Z,19.00
2023-05-05T14:07:40.028Z,18.50
2023-05-05T14:10:09.069Z,18.25
2023-05-05T14:12:37.614Z,20.00
2023-05-05T14:15:07.721Z,18.00
2023-05-05T14:17:36.375Z,22.50
2023-05-05T14:20:05.431Z,17.25
2023-05-05T14:22:34.190Z,20.00
2023-05-05T14:25:02.563Z,19.25
2023-05-05T14:27:30.989Z,22.50
2023-05-05T14:29:59.434Z,17.75
2023-05-05T14:32:27.892Z,19.00
2023-05-05T14:34:56.416Z,20.25
2023-05-05T14:37:24.915Z,22.00
2023-05-05T14:39:53.284Z,22.00
2023-05-05T14:42:21.759Z,18.25
2023-05-05T14:44:50.142Z,24.00
2023-05-05T14:47:18.605Z,21.00
2023-05-05T14:49:47.020Z,23.00
2023-05-05T14:52:15.400Z,20.75
2023-05-05T14:54:43.778Z,20.25
2023-05-05T14:57:12.246Z,17.75
2023-05-05T14:59:40.618Z,20.50
2023-05-05T15:02:09.186Z,18.25
2023-05-05T15:04:37.618Z,19.75
2023-05-05T15:07:06.060Z,19.00
2023-05-05T15:09:34.440Z,18.75
2023-05-05T15:12:02.827Z,17.50
2023-05-05T15:14:31.279Z,17.75
2023-05-05T15:16:59.660Z,16.00
2023-05-05T15:19:28.142Z,19.25
2023-05-05T15:21:56.603Z,17.75
2023-05-05T15:24:28.157Z,20.00
2023-05-05T15:26:56.664Z,18.75
2023-05-05T15:29:25.152Z,19.00
2023-05-05T15:31:53.711Z,20.75
2023-05-05T15:34:22.329Z,15.25
2023-05-05T15:36:50.709Z,21.50
2023-05-05T15:39:19.724Z,17.25
2023-05-05T15:41:48.236Z,21.25
2023-05-05T15:44:16.946Z,18.00
2023-05-05T15:46:45.369Z,23.50
2023-05-05T15:49:13.849Z,14.50
2023-05-05T15:51:42.734Z,17.00
2023-05-05T15:54:11.133Z,21.00
2023-05-05T15:56:39.680Z,18.50
2023-05-05T15:59:08.061Z,16.50
2023-05-05T16:01:37.273Z,20.00
2023-05-05T16:04:05.958Z,21.50
2023-05-05T16:06:34.331Z,16.00
2023-05-05T16:09:02.768Z,18.00
2023-05-05T16:11:31.842Z,19.00
2023-05-05T16:14:00.299Z,19.75
2023-05-05T16:16:28.693Z,22.25
2023-05-05T16:18:57.054Z,21.00
2023-05-05T16:21:25.418Z,16.25
2023-05-05T16:23:53.881Z,18.25
2023-05-05T16:26:22.272Z,19.00
2023-05-05T16:28:50.657Z,16.50
2023-05-05T16:31:19.081Z,17.75
2023-05-05T16:33:47.601Z,19.25
2023-05-05T16:36:16.071Z,20.00
2023-05-05T16:38:45.092Z,17.00
2023-05-05T16:41:13.488Z,14.75
2023-05-05T16:43:41.855Z,20.75
2023-05-05T16:46:10.283Z,20.00
2023-05-05T16:48:38.883Z,18.00
2023-05-05T16:51:07.475Z,19.50
2023-05-05T16:53:35.862Z,17.25
2023-05-05T16:56:04.287Z,19.75
2023-05-05T16:58:32.796Z,19.75
2023-05-05T17:01:02.885Z,20.25
2023-05-05T17:03:31.585Z,20.75
2023-05-05T17:06:00.399Z,20.25
2023-05-05T17:08:29.110Z,16.50
2023-05-05T17:10:57.587Z,15.00
2023-05-05T17:13:25.988Z,18.50
2023-05-05T17:15:54.407Z,17.50
2023-05-05T17:18:23.765Z,18.75
2023-05-05T17:20:52.376Z,19.00
2023-05-05T17:23:22.311Z,18.00
2023-05-05T17:25:50.729Z,18.25
2023-05-05T17:28:19.098Z,19.75
2023-05-05T17:30:47.838Z,16.75
2023-05-05T17:33:19.279Z,19.25
2023-05-05T17:35:48.230Z,19.75
2023-05-05T17:38:16.708Z,20.00
2023-05-05T17:40:45.118Z,21.00
2023-05-05T17:43:13.719Z,17.75
2023-05-05T17:45:43.221Z,19.00
2023-05-05T17:48:11.690Z,20.25
2023-05-05T17:50:43.413Z,17.75
2023-05-05T17:53:12.310Z,21.50
2023-05-05T17:55:40.675Z,19.75
2023-05-05T17:58:09.046Z,20.75
2023-05-05T18:00:37.664Z,18.75
2023-05-05T18:03:06.175Z,21.50
2023-05-05T18:05:34.657Z,20.50
2023-05-05T18:08:03.385Z,18.25
2023-05-05T18:10:31.878Z,17.50
2023-05-05T18:13:00.290Z,20.25
2023-05-05T18:15:30.689Z,20.00
2023-05-05T18:17:59.112Z,20.75
2023-05-05T18:20:27.576Z,19.00
2023-05-05T18:22:55.969Z,20.25
2023-05-05T18:25:24.487Z,19.00
2023-05-05T18:27:52.897Z,22.25
2023-05-05T18:30:21.305Z,23.50
2023-05-05T18:32:49.938Z,20.75
2023-05-05T18:35:18.429Z,20.00
2023-05-05T18:37:46.901Z,19.25
2023-05-05T18:40:15.445Z,23.25
2023-05-05T18:42:44.479Z,22.50
2023-05-05T18:45:13.078Z,19.25
2023-05-05T18:47:42.384Z,19.00
2023-05-05T18:50:11.024Z,23.25
2023-05-05T18:52:39.541Z,20.00
2023-05-05T18:55:08.507Z,20.75
2023-05-05T18:57:37.036Z,19.00
2023-05-05T19:00:05.871Z,20.00
2023-05-05T19:02:34.307Z,22.50
2023-05-05T19:05:03.082Z,17.25
2023-05-05T19:07:34.871Z,23.25
2023-05-05T19:10:06.306Z,21.25
2023-05-05T19:12:34.734Z,20.50
2023-05-05T19:15:03.241Z,19.00
2023-05-05T19:17:31.977Z,20.00
2023-05-05T19:20:00.443Z,17.25
2023-05-05T19:22:28.889Z,22.25
2023-05-05T19:24:57.368Z,19.25
2023-05-05T19:27:25.755Z,19.25
2023-05-05T19:29:54.300Z,20.75
2023-05-05T19:32:23.089Z,23.50
2023-05-05T19:34:55.060Z,21.25
2023-05-05T19:37:23.528Z,20.25
2023-05-05T19:39:51.967Z,20.75
2023-05-05T19:42:20.713Z,20.50
2023-05-05T19:44:49.100Z,17.75
2023-05-05T19:47:17.562Z,20.25
2023-05-05T19:49:45.965Z,18.25
2023-05-05T19:52:14.332Z,17.75
2023-05-05T19:54:44.329Z,20.50
2023-05-05T19:57:12.774Z,19.50
2023-05-05T19:59:42.630Z,20.50
2023-05-05T20:02:12.677Z,22.25
2023-05-05T20:04:41.130Z,18.75
2023-05-05T20:07:09.598Z,20.75
2023-05-05T20:09:38.733Z,17.25
2023-05-05T20:12:07.543Z,18.50
2023-05-05T20:14:36.236Z,17.00
2023-05-05T20:17:04.800Z,18.00
2023-05-05T20:19:33.199Z,22.75
2023-05-05T20:22:01.685Z,17.75
2023-05-05T20:24:30.783Z,16.50
2023-05-05T20:26:59.192Z,18.25
2023-05-05T20:29:27.804Z,18.00
2023-05-05T20:31:56.260Z,18.75
2023-05-05T20:34:26.099Z,21.00
2023-05-05T20:36:55.194Z,16.00
2023-05-05T20:39:23.571Z,20.75
2023-05-05T20:41:51.991Z,19.75
2023-05-05T20:44:20.376Z,18.50
2023-05-05T20:46:48.828Z,19.50
2023-05-05T20:49:17.259Z,18.25
2023-05-05T20:51:45.642Z,19.75
2023-05-05T20:54:14.035Z,18.25
2023-05-05T20:56:42.407Z,19.25
2023-05-05T20:59:10.818Z,18.25
2023-05-05T21:01:39.172Z,17.50
2023-05-05T21:04:07.591Z,17.00
2023-05-05T21:06:36.068Z,19.75
2023-05-05T21:09:07.322Z,20.75
2023-05-05T21:11:35.753Z,21.25
2023-05-05T21:14:07.627Z,18.25
2023-05-05T21:16:36.139Z,18.50
2023-05-05T21:19:04.564Z,20.50
2023-05-05T21:21:33.108Z,22.00
2023-05-05T21:24:01.539Z,20.00
2023-05-05T21:26:30.112Z,19.75
2023-05-05T21:28:58.515Z,17.75
2023-05-05T21:31:26.972Z,20.50
2023-05-05T21:33:55.404Z,17.50
2023-05-05T21:36:26.269Z,21.00
2023-05-05T21:38:59.775Z,19.00
2023-05-05T21:41:28.824Z,19.25
2023-05-05T21:43:57.258Z,20.25
2023-05-05T21:46:25.790Z,22.50
2023-05-05T21:48:54.263Z,19.75
2023-05-05T21:51:24.433Z,21.00
2023-05-05T21:53:52.801Z,19.75
2023-05-05T21:56:21.882Z,19.75
2023-05-05T21:58:50.263Z,25.75
2023-05-05T22:01:18.640Z,20.50
2023-05-05T22:03:48.327Z,20.75
2023-05-05T22:06:21.434Z,20.25
2023-05-05T22:08:50.573Z,18.50
2023-05-05T22:11:20.448Z,18.50
2023-05-05T22:13:48.897Z,21.25
2023-05-05T22:16:20.520Z,19.50
2023-05-05T22:18:49.042Z,18.50
2023-05-05T22:21:17.403Z,20.50
2023-05-05T22:23:47.038Z,19.00
2023-05-05T22:26:15.458Z,19.75
2023-05-05T22:28:43.912Z,20.50
2023-05-05T22:31:12.532Z,20.00
2023-05-05T22:33:40.965Z,21.50
2023-05-05T22:36:10.173Z,20.75
2023-05-05T22:38:38.906Z,22.25
2023-05-05T22:41:08.434Z,18.50
2023-05-05T22:43:36.900Z,21.00
2023-05-05T22:46:05.365Z,21.25
2023-05-05T22:48:33.746Z,17.50
2023-05-05T22:51:02.127Z,25.50
2023-05-05T22:53:30.469Z,24.25
2023-05-05T22:55:59.509Z,22.75
2023-05-05T22:58:28.606Z,21.00
2023-05-05T23:00:57.162Z,21.75
2023-05-05T23:03:25.820Z,21.00
2023-05-05T23:05:54.195Z,21.00
2023-05-05T23:08:24.956Z,20.75
2023-05-05T23:10:53.324Z,20.75
2023-05-05T23:13:22.011Z,20.75
2023-05-05T23:15:50.486Z,19.75
2023-05-05T23:18:18.938Z,23.00
2023-05-05T23:20:47.395Z,22.50
2023-05-05T23:23:15.827Z,20.00
2023-05-05T23:25:44.249Z,20.25
2023-05-05T23:28:12.682Z,18.00
2023-05-05T23:30:41.300Z,20.50
2023-05-05T23:33:09.760Z,21.50
2023-05-05T23:35:40.504Z,20.75
2023-05-05T23:38:08.893Z,21.00
2023-05-05T23:40:37.303Z,20.75
2023-05-05T23:43:05.684Z,20.50
2023-05-05T23:45:34.202Z,20.25
2023-05-05T23:48:02.584Z,18.75
2023-05-05T23:50:31.353Z,20.25
2023-05-05T23:52:59.709Z,21.00
2023-05-05T23:55:28.126Z,21.00
2023-05-05T23:57:56.572Z,23.00
